createdAt,value
2023-04-13T00:02:39.996Z,7.05
2023-04-13T00:07:43.754Z,7.07
2023-04-13T00:12:48.044Z,6.98
2023-04-13T00:17:51.724Z,6.92
2023-04-13T00:22:55.428Z,7.04
2023-04-13T00:28:03.770Z,6.96
2023-04-13T00:33:07.601Z,6.89
2023-04-13T00:38:11.921Z,6.86
2023-04-13T00:43:16.813Z,6.79
2023-04-13T00:48:20.993Z,6.72
2023-04-13T00:53:24.619Z,6.68
2023-04-13T00:58:28.433Z,6.63
2023-04-13T01:03:31.817Z,6.60
2023-04-13T01:08:40.891Z,6.49
2023-04-13T01:14:24.758Z,6.43
2023-04-13T01:19:28.168Z,6.38
2023-04-13T01:24:43.363Z,6.37
2023-04-13T01:29:48.675Z,6.35
2023-04-13T01:34:52.231Z,6.39
2023-04-13T01:39:55.646Z,6.42
2023-04-13T01:44:59.159Z,6.51
2023-04-13T01:50:16.093Z,6.62
2023-04-13T01:55:20.018Z,6.65
2023-04-13T02:00:23.430Z,6.67
2023-04-13T02:05:27.721Z,6.67
2023-04-13T02:10:35.119Z,6.67
2023-04-13T02:15:38.800Z,6.72
2023-04-13T02:20:45.300Z,6.72
2023-04-13T02:25:48.993Z,6.64
2023-04-13T02:30:52.820Z,6.49
2023-04-13T02:35:56.231Z,6.30
2023-04-13T02:41:00.891Z,6.16
2023-04-13T02:46:04.661Z,6.13
2023-04-13T02:51:08.434Z,6.11
2023-04-13T02:56:11.828Z,5.99
2023-04-13T03:01:15.412Z,6.03
2023-04-13T03:06:18.982Z,5.99
2023-04-13T03:11:23.858Z,6.01
2023-04-13T03:16:28.525Z,5.89
2023-04-13T03:21:34.736Z,5.96
2023-04-13T03:26:38.345Z,5.95
2023-04-13T03:31:41.845Z,5.96
2023-04-13T03:36:46.197Z,6.01
2023-04-13T03:41:49.615Z,6.02
2023-04-13T03:46:53.025Z,6.00
2023-04-13T03:51:57.673Z,5.94
2023-04-13T03:57:02.513Z,5.89
2023-04-13T04:02:05.958Z,5.89
2023-04-13T04:07:09.447Z,5.94
2023-04-13T04:12:14.648Z,5.97
2023-04-13T04:17:18.114Z,6.07
2023-04-13T04:22:21.525Z,6.18
2023-04-13T04:27:26.585Z,6.37
2023-04-13T04:32:29.907Z,6.50
2023-04-13T04:37:37.850Z,6.76
2023-04-13T04:42:41.626Z,6.91
2023-04-13T04:47:45.434Z,7.10
2023-04-13T04:52:48.992Z,7.45
2023-04-13T04:57:52.387Z,7.76
2023-04-13T05:02:56.055Z,8.10
2023-04-13T05:08:00.575Z,8.37
2023-04-13T05:13:04.077Z,8.64
2023-04-13T05:18:07.572Z,8.81
2023-04-13T05:23:11.043Z,8.91
2023-04-13T05:28:14.912Z,8.90
2023-04-13T05:33:18.426Z,8.89
2023-04-13T05:38:22.963Z,8.91
2023-04-13T05:43:27.411Z,8.83
2023-04-13T05:48:34.121Z,8.80
2023-04-13T05:53:37.810Z,8.85
2023-04-13T05:58:41.426Z,8.91
2023-04-13T06:03:45.351Z,9.01
2023-04-13T06:08:49.787Z,9.10
2023-04-13T06:13:53.200Z,9.12
2023-04-13T06:18:56.950Z,9.14
2023-04-13T06:24:00.646Z,9.20
2023-04-13T06:29:04.258Z,9.37
2023-04-13T06:34:07.778Z,9.47
2023-04-13T06:39:11.912Z,9.63
2023-04-13T06:44:15.419Z,9.90
2023-04-13T06:49:18.940Z,10.22
2023-04-13T06:54:22.452Z,10.49
2023-04-13T06:59:26.293Z,10.82
2023-04-13T07:04:32.367Z,11.09
2023-04-13T07:09:37.416Z,11.35
2023-04-13T07:14:42.159Z,11.65
2023-04-13T07:19:48.071Z,11.99
2023-04-13T07:24:51.639Z,12.34
2023-04-13T07:29:55.879Z,12.69
2023-04-13T07:35:02.173Z,12.96
2023-04-13T07:40:07.056Z,13.12
2023-04-13T07:45:15.734Z,13.34
2023-04-13T07:50:19.562Z,13.55
2023-04-13T07:55:23.285Z,13.82
2023-04-13T08:00:27.407Z,14.02
2023-04-13T08:05:30.888Z,14.13
2023-04-13T08:10:35.970Z,14.33
2023-04-13T08:15:39.284Z,14.46
2023-04-13T08:20:42.803Z,14.57
2023-04-13T08:25:47.545Z,14.77
2023-04-13T08:30:51.165Z,14.82
2023-04-13T08:35:54.684Z,14.81
2023-04-13T08:40:59.232Z,14.91
2023-04-13T08:46:09.035Z,15.16
2023-04-13T08:51:14.337Z,15.32
2023-04-13T08:56:17.852Z,15.56
2023-04-13T09:01:23.018Z,15.83
2023-04-13T09:06:35.965Z,16.20
2023-04-13T09:11:39.661Z,16.49
2023-04-13T09:16:44.044Z,16.72
2023-04-13T09:21:48.952Z,17.07
2023-04-13T09:26:52.778Z,17.42
2023-04-13T09:31:56.093Z,17.53
2023-04-13T09:37:01.201Z,17.83
2023-04-13T09:42:15.919Z,18.34
2023-04-13T09:47:19.701Z,18.71
2023-04-13T09:52:24.506Z,18.96
2023-04-13T09:57:32.708Z,19.23
2023-04-13T10:02:39.772Z,19.44
2023-04-13T10:07:47.591Z,19.75
2023-04-13T10:12:55.441Z,19.97
2023-04-13T10:18:23.902Z,20.11
2023-04-13T10:23:32.071Z,20.16
2023-04-13T10:29:02.727Z,20.38
2023-04-13T10:34:09.508Z,20.41
2023-04-13T10:39:28.229Z,20.40
2023-04-13T10:44:51.564Z,20.32
2023-04-13T10:49:54.879Z,20.28
2023-04-13T10:54:58.282Z,20.41
2023-04-13T11:00:01.910Z,20.70
2023-04-13T11:05:06.057Z,20.86
2023-04-13T11:10:10.682Z,21.25
2023-04-13T11:15:20.907Z,21.19
2023-04-13T11:20:31.884Z,21.22
2023-04-13T11:25:35.362Z,21.38
2023-04-13T11:30:39.281Z,21.75
2023-04-13T11:35:49.923Z,21.74
2023-04-13T11:41:12.427Z,21.88
2023-04-13T11:46:27.332Z,22.20
2023-04-13T11:51:32.765Z,22.39
2023-04-13T11:56:36.280Z,22.53
2023-04-13T12:01:49.382Z,22.67
2023-04-13T12:06:54.047Z,22.74
2023-04-13T12:12:20.538Z,22.79
2023-04-13T12:22:54.838Z,22.72
2023-04-13T12:28:00.451Z,22.95
2023-04-13T12:33:04.208Z,23.29
2023-04-13T12:38:08.513Z,23.50
2023-04-13T12:43:12.112Z,23.35
2023-04-13T12:48:15.577Z,23.18
2023-04-13T12:53:19.061Z,22.95
2023-04-13T12:58:22.468Z,22.48
2023-04-13T13:03:26.344Z,21.97
2023-04-13T13:08:30.902Z,21.45
2023-04-13T13:13:36.396Z,21.09
2023-04-13T13:18:49.692Z,20.68
2023-04-13T13:23:53.708Z,20.27
2023-04-13T13:28:57.394Z,19.97
2023-04-13T13:34:01.209Z,19.70
2023-04-13T13:39:05.951Z,19.49
2023-04-13T13:44:09.285Z,19.41
2023-04-13T13:49:12.886Z,19.47
2023-04-13T13:54:16.311Z,19.52
2023-04-13T13:59:19.765Z,19.63
2023-04-13T14:04:23.252Z,19.49
2023-04-13T14:09:28.077Z,19.37
2023-04-13T14:14:31.483Z,19.31
2023-04-13T14:19:34.997Z,19.28
2023-04-13T14:24:38.514Z,19.44
2023-04-13T14:29:42.599Z,19.77
2023-04-13T14:34:46.361Z,21.10
2023-04-13T14:39:51.591Z,25.01
2023-04-13T14:44:54.929Z,25.41
2023-04-13T14:49:58.550Z,24.67
2023-04-13T14:55:02.046Z,24.74
2023-04-13T15:00:21.872Z,26.35
2023-04-13T15:05:25.677Z,28.32
2023-04-13T15:10:30.536Z,27.53
2023-04-13T15:15:36.814Z,26.41
2023-04-13T15:20:40.237Z,26.02
2023-04-13T15:25:43.661Z,25.39
2023-04-13T15:30:47.258Z,25.14
2023-04-13T15:35:52.659Z,27.07
2023-04-13T15:40:56.274Z,28.80
2023-04-13T15:46:02.830Z,33.54
2023-04-13T15:51:06.179Z,37.09
2023-04-13T15:56:10.294Z,37.25
2023-04-13T16:01:14.020Z,37.21
2023-04-13T16:06:17.691Z,36.88
2023-04-13T16:11:21.217Z,34.77
2023-04-13T16:16:27.499Z,33.33
2023-04-13T16:21:31.016Z,31.55
2023-04-13T16:26:35.352Z,29.37
2023-04-13T16:31:38.710Z,27.52
2023-04-13T16:36:42.479Z,25.85
2023-04-13T16:41:46.117Z,24.47
2023-04-13T16:46:49.722Z,23.39
2023-04-13T16:51:53.436Z,22.49
2023-04-13T16:56:57.278Z,21.65
2023-04-13T17:02:00.796Z,20.84
2023-04-13T17:07:04.300Z,20.16
2023-04-13T17:12:07.805Z,19.59
2023-04-13T17:17:12.366Z,18.98
2023-04-13T17:22:15.758Z,18.44
2023-04-13T17:27:19.171Z,17.97
2023-04-13T17:32:22.586Z,17.61
2023-04-13T17:37:26.474Z,17.31
2023-04-13T17:42:30.032Z,16.99
2023-04-13T17:47:33.456Z,16.58
2023-04-13T17:52:37.358Z,16.22
2023-04-13T17:57:40.986Z,15.86
2023-04-13T18:02:44.739Z,15.49
2023-04-13T18:07:48.244Z,15.19
2023-04-13T18:12:51.738Z,14.88
2023-04-13T18:17:55.330Z,14.68
2023-04-13T18:22:59.092Z,14.52
2023-04-13T18:28:02.602Z,14.39
2023-04-13T18:33:06.134Z,14.25
2023-04-13T18:38:10.344Z,14.11
2023-04-13T18:43:13.764Z,13.97
2023-04-13T18:48:17.268Z,13.77
2023-04-13T18:53:22.220Z,13.60
2023-04-13T18:58:25.940Z,13.44
2023-04-13T19:03:29.671Z,13.28
2023-04-13T19:08:33.076Z,13.08
2023-04-13T19:13:36.584Z,12.93
2023-04-13T19:18:40.511Z,12.78
2023-04-13T19:23:43.827Z,12.62
2023-04-13T19:28:48.467Z,12.42
2023-04-13T19:33:53.003Z,12.27
2023-04-13T19:38:56.310Z,12.07
2023-04-13T19:44:01.270Z,11.94
2023-04-13T19:49:06.112Z,11.80
2023-04-13T19:54:09.636Z,11.68
2023-04-13T19:59:13.356Z,11.50
2023-04-13T20:04:16.944Z,11.35
2023-04-13T20:09:21.402Z,11.23
2023-04-13T20:14:26.112Z,11.16
2023-04-13T20:19:29.458Z,11.12
2023-04-13T20:24:32.939Z,11.02
2023-04-13T20:29:36.896Z,10.94
2023-04-13T20:34:40.700Z,10.91
2023-04-13T20:39:53.120Z,10.85
2023-04-13T20:44:57.757Z,10.73
2023-04-13T20:50:02.223Z,10.62
2023-04-13T20:55:05.743Z,10.60
2023-04-13T21:00:15.439Z,10.51
2023-04-13T21:05:22.600Z,10.43
2023-04-13T21:10:26.324Z,10.38
2023-04-13T21:15:29.845Z,10.29
2023-04-13T21:20:33.352Z,10.24
2023-04-13T21:25:37.586Z,10.18
2023-04-13T21:30:40.998Z,10.15
2023-04-13T21:35:44.514Z,10.07
2023-04-13T21:40:48.025Z,9.98
2023-04-13T21:45:51.582Z,9.94
2023-04-13T21:50:55.368Z,9.86
2023-04-13T21:55:58.776Z,9.77
2023-04-13T22:01:02.229Z,9.73
2023-04-13T22:06:08.353Z,9.70
2023-04-13T22:11:12.196Z,9.65
2023-04-13T22:16:16.704Z,9.61
2023-04-13T22:21:20.970Z,9.57
2023-04-13T22:26:25.965Z,9.50
2023-04-13T22:31:29.483Z,9.43
2023-04-13T22:36:33.154Z,9.37
2023-04-13T22:41:36.768Z,9.29
2023-04-13T22:46:40.300Z,9.22
2023-04-13T22:51:44.211Z,9.17
2023-04-13T22:56:47.823Z,9.12
2023-04-13T23:01:51.611Z,9.08
2023-04-13T23:06:55.368Z,9.04
2023-04-13T23:11:59.087Z,9.00
2023-04-13T23:17:03.013Z,8.96
2023-04-13T23:22:06.427Z,8.94
2023-04-13T23:27:09.958Z,8.96
2023-04-13T23:32:13.733Z,8.94
2023-04-13T23:37:17.181Z,8.96
2023-04-13T23:42:20.591Z,8.96
2023-04-13T23:47:24.142Z,8.95
2023-04-13T23:52:27.625Z,8.95
2023-04-13T23:57:34.940Z,8.91
